Time;durP1;ratioP1;P1;durP2;ratioP2;P2;SDS_P1;SDS_P2;PMS_P1;PMS_P2;Temp;Humidity;BMP_temperature;BMP_pressure;BME280_temperature;BME280_humidity;BME280_pressure;Samples;Min_cycle;Max_cycle;Signal;HPM_P1;HPM_P2
2022/09/16 00:00:09;;;;;;;5.07;4.00;;;;;;;-144.47;100.00;61586.06;4991707;28;20042;-83
2022/09/16 00:02:34;;;;;;;5.57;3.97;;;;;;;-144.47;100.00;61586.06;4988281;28;20045;-84
2022/09/16 00:05:00;;;;;;;5.93;3.75;;;;;;;-144.47;100.00;61586.06;4988871;28;20089;-90
2022/09/16 00:07:25;;;;;;;8.13;3.90;;;;;;;-144.47;100.00;61586.06;4982839;28;20031;-92
2022/09/16 00:09:50;;;;;;;8.10;4.53;;;;;;;-144.47;100.00;61586.06;4982615;28;20035;-94
2022/09/16 00:12:16;;;;;;;6.35;4.10;;;;;;;-144.47;100.00;61586.06;4981656;28;20034;-93
2022/09/16 00:14:42;;;;;;;6.32;4.20;;;;;;;-144.47;100.00;61586.06;4974413;28;20034;-93
2022/09/16 00:17:08;;;;;;;6.43;3.83;;;;;;;-144.47;100.00;61586.06;4990581;28;20098;-94
2022/09/16 00:19:33;;;;;;;5.95;4.18;;;;;;;-144.47;100.00;61586.06;4989369;28;20041;-87
2022/09/16 00:21:59;;;;;;;5.32;3.95;;;;;;;-144.47;100.00;61586.06;4986316;28;20217;-88
2022/09/16 00:24:24;;;;;;;7.07;3.22;;;;;;;-144.47;100.00;61586.06;4988777;28;20355;-87
2022/09/16 00:26:50;;;;;;;7.05;4.35;;;;;;;-144.47;100.00;61586.06;5000002;28;20062;-87
2022/09/16 00:29:15;;;;;;;5.88;3.90;;;;;;;-144.47;100.00;61586.06;5000241;28;20435;-88
2022/09/16 00:31:41;;;;;;;6.90;3.90;;;;;;;-144.47;100.00;61586.06;4983572;28;20392;-89
2022/09/16 00:34:06;;;;;;;4.45;3.90;;;;;;;-144.47;100.00;61586.06;4987521;28;20442;-88
2022/09/16 00:36:32;;;;;;;7.18;4.63;;;;;;;-144.47;100.00;61586.06;4984486;28;20054;-88
2022/09/16 00:38:57;;;;;;;5.97;4.05;;;;;;;-144.47;100.00;61586.06;4985773;28;20035;-91
2022/09/16 00:41:31;;;;;;;9.07;4.55;;;;;;;-144.47;100.00;61586.06;4985291;28;20031;-89
2022/09/16 00:44:06;;;;;;;8.60;4.30;;;;;;;-144.47;100.00;61586.06;4985729;28;20398;-87
2022/09/16 00:46:42;;;;;;;5.40;4.40;;;;;;;-144.47;100.00;61586.06;4982577;28;20039;-88
2022/09/16 00:49:14;;;;;;;4.40;4.00;;;;;;;-144.47;100.00;61586.06;4987237;28;20042;-89
2022/09/16 00:51:41;;;;;;;4.82;4.38;;;;;;;-144.47;100.00;61586.06;4986624;28;20034;-87
2022/09/16 00:54:08;;;;;;;9.77;4.60;;;;;;;-144.47;100.00;61586.06;4981984;28;20027;-87
2022/09/16 00:56:37;;;;;;;7.05;4.88;;;;;;;-144.47;100.00;61586.06;4989766;28;20080;-88
2022/09/16 00:59:18;;;;;;;6.65;4.30;;;;;;;-144.47;100.00;61586.06;4988436;28;20351;-86
2022/09/16 01:01:43;;;;;;;;;;;;;;;-144.47;100.00;61586.06;4981523;28;20035;-88
2022/09/16 01:04:18;;;;;;;5.13;4.30;;;;;;;-144.47;100.00;61586.06;4984632;28;19925;-88
2022/09/16 01:06:43;;;;;;;8.35;4.30;;;;;;;-144.47;100.00;61586.06;4985752;28;20034;-88
2022/09/16 01:09:09;;;;;;;8.02;4.78;;;;;;;-144.47;100.00;61586.06;4983074;28;20057;-90
2022/09/16 01:11:34;;;;;;;7.93;4.57;;;;;;;-144.47;100.00;61586.06;4983002;28;20034;-90
2022/09/16 01:16:57;;;;;;;5.88;4.43;;;;;;;-144.47;100.00;61586.06;4986305;28;20042;-88
2022/09/16 01:19:40;;;;;;;6.78;4.25;;;;;;;-144.47;100.00;61586.06;4999621;28;20048;-87
2022/09/16 01:22:17;;;;;;;7.75;3.90;;;;;;;-144.47;100.00;61586.06;5000756;28;20034;-87
2022/09/16 01:24:53;;;;;;;7.93;4.05;;;;;;;-144.47;100.00;61586.06;4986923;28;20071;-88
2022/09/16 01:27:57;;;;;;;5.57;4.05;;;;;;;-144.47;100.00;61586.06;4984538;28;20030;-88
2022/09/16 01:30:46;;;;;;;8.48;4.80;;;;;;;-144.47;100.00;61586.06;4979831;28;20046;-89
2022/09/16 01:33:30;;;;;;;7.93;4.13;;;;;;;-144.47;100.00;61586.06;4991052;28;20031;-88
2022/09/16 01:36:30;;;;;;;7.60;4.22;;;;;;;-144.47;100.00;61586.06;4983175;28;20455;-90
2022/09/16 01:39:02;;;;;;;6.60;4.25;;;;;;;-144.47;100.00;61586.06;4987643;28;20499;-90
2022/09/16 01:42:03;;;;;;;5.68;3.90;;;;;;;-144.47;100.00;61586.06;4983181;28;20022;-89
2022/09/16 01:44:45;;;;;;;9.13;4.22;;;;;;;-144.47;100.00;61586.06;4982666;28;20181;-88
2022/09/16 01:47:13;;;;;;;4.70;3.60;;;;;;;-144.47;100.00;61586.06;4985380;28;20030;-88
2022/09/16 01:50:02;;;;;;;5.32;4.18;;;;;;;-144.47;100.00;61586.06;4981755;28;20027;-88
2022/09/16 01:52:50;;;;;;;5.78;4.60;;;;;;;-144.47;100.00;61586.06;4986660;28;20077;-89
2022/09/16 01:55:34;;;;;;;6.40;4.10;;;;;;;-144.47;100.00;61586.06;4986012;28;20045;-88
2022/09/16 01:58:22;;;;;;;8.95;4.32;;;;;;;-144.47;100.00;61586.06;4992148;28;20038;-87
2022/09/16 02:00:52;;;;;;;6.95;4.28;;;;;;;-144.47;100.00;61586.06;4985439;28;20031;-87
2022/09/16 02:03:23;;;;;;;8.15;4.93;;;;;;;-144.47;100.00;61586.06;4984111;28;20090;-86
2022/09/16 02:06:00;;;;;;;6.03;4.45;;;;;;;-144.47;100.00;61586.06;4982818;28;20050;-86
2022/09/16 02:08:43;;;;;;;5.28;4.38;;;;;;;-144.47;100.00;61586.06;4986756;28;20097;-87
2022/09/16 02:11:13;;;;;;;8.38;4.70;;;;;;;-144.47;100.00;61586.06;5003899;28;20092;-88
2022/09/16 02:13:58;;;;;;;7.10;4.45;;;;;;;-144.47;100.00;61586.06;4985863;28;20060;-87
2022/09/16 02:16:41;;;;;;;4.93;4.53;;;;;;;-144.47;100.00;61586.06;4985764;28;20430;-86
2022/09/16 02:19:14;;;;;;;6.00;5.05;;;;;;;-144.47;100.00;61586.06;4989164;28;20026;-87
2022/09/16 02:21:41;;;;;;;5.68;4.60;;;;;;;-144.47;100.00;61586.06;4979980;28;20035;-86
2022/09/16 02:24:12;;;;;;;5.93;4.57;;;;;;;-144.47;100.00;61586.06;4981496;28;20172;-91
2022/09/16 02:26:43;;;;;;;8.35;4.55;;;;;;;-144.47;100.00;61586.06;4985620;28;20031;-91
2022/09/16 02:29:15;;;;;;;5.72;5.10;;;;;;;-144.47;100.00;61586.06;4988868;28;20455;-89
2022/09/16 02:31:43;;;;;;;5.05;4.60;;;;;;;-144.47;100.00;61586.06;4981727;28;20041;-89
2022/09/16 02:34:13;;;;;;;;;;;;;;;-144.47;100.00;61586.06;4982070;28;20165;-89
2022/09/16 02:36:43;;;;;;;7.50;4.80;;;;;;;-144.47;100.00;61586.06;4986240;28;19925;-90
2022/09/16 02:39:13;;;;;;;4.45;4.05;;;;;;;-144.47;100.00;61586.06;4980387;28;20030;-87
2022/09/16 02:41:40;;;;;;;6.07;4.53;;;;;;;-144.47;100.00;61586.06;4982307;28;20377;-90
2022/09/16 02:44:07;;;;;;;6.05;5.05;;;;;;;-144.47;100.00;61586.06;4986557;28;20027;-91
2022/09/16 02:47:00;;;;;;;8.40;5.03;;;;;;;-144.47;100.00;61586.06;4983515;28;20057;-88
2022/09/16 02:49:47;;;;;;;7.90;4.40;;;;;;;-144.47;100.00;61586.06;4986090;28;20050;-91
2022/09/16 02:52:31;;;;;;;6.80;4.60;;;;;;;-144.47;100.00;61586.06;4985745;28;20498;-91
2022/09/16 02:55:27;;;;;;;6.95;4.60;;;;;;;-144.47;100.00;61586.06;4982222;28;20092;-91
2022/09/16 02:57:52;;;;;;;10.27;4.50;;;;;;;-144.47;100.00;61586.06;4988054;28;20045;-88
2022/09/16 03:00:19;;;;;;;7.95;4.30;;;;;;;-144.47;100.00;61586.06;4990600;28;20080;-88
2022/09/16 03:02:45;;;;;;;8.73;4.55;;;;;;;-144.47;100.00;61586.06;4983706;28;20109;-85
2022/09/16 03:05:11;;;;;;;5.03;4.50;;;;;;;-144.47;100.00;61586.06;4982611;28;20523;-86
2022/09/16 03:07:39;;;;;;;9.43;5.10;;;;;;;-144.47;100.00;61586.06;4985894;28;20031;-86
2022/09/16 03:10:07;;;;;;;5.43;4.50;;;;;;;-144.47;100.00;61586.06;4987664;28;20098;-89
2022/09/16 03:12:42;;;;;;;7.68;4.60;;;;;;;-144.47;100.00;61586.06;4986910;28;20106;-89
2022/09/16 03:15:26;;;;;;;6.68;4.88;;;;;;;-144.47;100.00;61586.06;4989833;28;20034;-90
2022/09/16 03:18:10;;;;;;;5.45;4.95;;;;;;;-144.47;100.00;61586.06;4985871;28;20042;-89
2022/09/16 03:21:23;;;;;;;5.75;4.05;;;;;;;-144.47;100.00;61586.06;4985126;28;20034;-88
2022/09/16 03:24:24;;;;;;;5.75;4.50;;;;;;;-144.47;100.00;61586.06;4960113;28;20098;-88
2022/09/16 03:27:03;;;;;;;5.30;4.50;;;;;;;-144.47;100.00;61586.06;4985494;28;20084;-87
2022/09/16 03:29:37;;;;;;;7.00;4.28;;;;;;;-144.47;100.00;61586.06;4984061;28;20066;-89
2022/09/16 03:32:10;;;;;;;6.90;4.47;;;;;;;-144.47;100.00;61586.06;4982200;28;20042;-91
2022/09/16 03:35:05;;;;;;;6.00;4.78;;;;;;;-144.47;100.00;61586.06;4989785;28;20034;-90
2022/09/16 03:37:34;;;;;;;5.10;4.30;;;;;;;-144.47;100.00;61586.06;5000085;28;20034;-90
2022/09/16 03:40:06;;;;;;;4.60;4.05;;;;;;;-144.47;100.00;61586.06;5007026;28;20136;-90
2022/09/16 03:42:32;;;;;;;4.25;3.92;;;;;;;-144.47;100.00;61586.06;4998174;28;20062;-89
2022/09/16 03:44:58;;;;;;;8.40;4.30;;;;;;;-144.47;100.00;61586.06;4997255;28;20070;-90
2022/09/16 03:47:23;;;;;;;5.75;4.35;;;;;;;-144.47;100.00;61586.06;4992130;28;20074;-91
2022/09/16 03:49:49;;;;;;;6.15;4.32;;;;;;;-144.47;100.00;61586.06;5008703;28;20034;-87
2022/09/16 03:52:17;;;;;;;4.95;4.50;;;;;;;-144.47;100.00;61586.06;4990869;28;20038;-87
2022/09/16 03:54:43;;;;;;;5.65;4.65;;;;;;;-144.47;100.00;61586.06;4993016;28;20035;-85
2022/09/16 03:57:09;;;;;;;5.95;4.68;;;;;;;-144.47;100.00;61586.06;4990155;28;20041;-88
2022/09/16 03:59:34;;;;;;;5.65;4.75;;;;;;;-144.47;100.00;61586.06;4995172;28;20093;-88
2022/09/16 04:02:00;;;;;;;4.93;4.60;;;;;;;-144.47;100.00;61586.06;4988318;28;20037;-91
2022/09/16 04:04:25;;;;;;;8.02;4.10;;;;;;;-144.47;100.00;61586.06;4986527;28;20023;-90
2022/09/16 04:06:51;;;;;;;8.30;4.60;;;;;;;-144.47;100.00;61586.06;4985201;28;20043;-88
2022/09/16 04:09:16;;;;;;;6.43;4.88;;;;;;;-144.47;100.00;61586.06;4986109;28;20030;-91
2022/09/16 04:11:42;;;;;;;8.68;5.25;;;;;;;-144.47;100.00;61586.06;4986960;28;20058;-89
2022/09/16 04:14:07;;;;;;;8.77;5.18;;;;;;;-144.47;100.00;61586.06;4984974;28;20495;-92
2022/09/16 04:16:33;;;;;;;7.00;5.03;;;;;;;-144.47;100.00;61586.06;5000214;28;20031;-90
2022/09/16 04:18:59;;;;;;;8.23;5.22;;;;;;;-144.47;100.00;61586.06;4985839;28;20061;-89
2022/09/16 04:21:25;;;;;;;7.43;5.90;;;;;;;-144.47;100.00;61586.06;4986112;28;20035;-89
2022/09/16 04:23:53;;;;;;;6.15;5.30;;;;;;;-144.47;100.00;61586.06;4987352;28;20122;-90
2022/09/16 04:26:19;;;;;;;6.80;5.00;;;;;;;-144.47;100.00;61586.06;4989242;28;20030;-90
2022/09/16 04:28:46;;;;;;;5.93;4.90;;;;;;;-144.47;100.00;61586.06;4987683;28;20036;-90
2022/09/16 04:31:14;;;;;;;6.85;5.05;;;;;;;-144.47;100.00;61586.06;4990295;28;20038;-87
2022/09/16 04:33:40;;;;;;;9.77;5.57;;;;;;;-144.47;100.00;61586.06;4985208;28;20126;-88
2022/09/16 04:36:07;;;;;;;7.40;4.70;;;;;;;-144.47;100.00;61586.06;4989295;28;20030;-89
2022/09/16 04:38:33;;;;;;;5.43;4.50;;;;;;;-144.47;100.00;61586.06;4982988;28;20038;-88
2022/09/16 04:41:05;;;;;;;8.02;4.65;;;;;;;-144.47;100.00;61586.06;4983425;28;20104;-88
2022/09/16 04:43:30;;;;;;;6.55;5.22;;;;;;;-144.47;100.00;61586.06;4984123;28;20480;-84
2022/09/16 04:45:56;;;;;;;9.20;4.85;;;;;;;-144.47;100.00;61586.06;4985241;28;20111;-84
2022/09/16 04:48:24;;;;;;;7.35;4.40;;;;;;;-144.47;100.00;61586.06;5000109;28;20043;-85
2022/09/16 04:50:50;;;;;;;7.38;4.95;;;;;;;-144.47;100.00;61586.06;4984331;28;20423;-86
2022/09/16 04:53:16;;;;;;;8.52;5.50;;;;;;;-144.47;100.00;61586.06;4987800;28;20026;-85
2022/09/16 04:55:42;;;;;;;5.82;4.38;;;;;;;-144.47;100.00;61586.06;4986540;28;20038;-87
2022/09/16 04:58:07;;;;;;;7.03;5.22;;;;;;;-144.47;100.00;61586.06;4986704;28;20034;-84
2022/09/16 05:00:33;;;;;;;5.90;5.30;;;;;;;-144.47;100.00;61586.06;4983875;28;20039;-87
2022/09/16 05:02:58;;;;;;;7.28;5.53;;;;;;;-144.47;100.00;61586.06;4990866;28;20048;-86
2022/09/16 05:05:24;;;;;;;9.35;5.30;;;;;;;-144.47;100.00;61586.06;4992809;28;20467;-89
2022/09/16 05:07:49;;;;;;;7.80;5.68;;;;;;;-144.47;100.00;61586.06;4993904;28;20034;-83
2022/09/16 05:10:15;;;;;;;6.82;5.38;;;;;;;-144.47;100.00;61586.06;4993670;28;20054;-81
2022/09/16 05:12:40;;;;;;;6.88;5.80;;;;;;;-144.47;100.00;61586.06;4992615;28;20045;-76
2022/09/16 05:15:06;;;;;;;8.25;6.65;;;;;;;-144.47;100.00;61586.06;4986020;28;20105;-79
2022/09/16 05:17:32;;;;;;;7.30;6.63;;;;;;;-144.47;100.00;61586.06;4983099;28;20480;-81
2022/09/16 05:19:57;;;;;;;8.57;6.65;;;;;;;-144.47;100.00;61586.06;4984473;28;20039;-82
2022/09/16 05:22:23;;;;;;;11.52;6.30;;;;;;;-144.47;100.00;61586.06;4983950;28;20030;-81
2022/09/16 05:24:48;;;;;;;10.68;6.85;;;;;;;-144.47;100.00;61586.06;4988526;28;20118;-91
2022/09/16 05:27:14;;;;;;;7.10;5.78;;;;;;;-144.47;100.00;61586.06;4989031;28;20447;-80
2022/09/16 05:29:40;;;;;;;7.20;6.05;;;;;;;-144.47;100.00;61586.06;4984384;28;20097;-80
2022/09/16 05:32:06;;;;;;;14.05;6.45;;;;;;;-144.47;100.00;61586.06;4982796;28;20448;-77
2022/09/16 05:34:34;;;;;;;8.50;6.32;;;;;;;-144.47;100.00;61586.06;4985043;28;20026;-77
2022/09/16 05:37:00;;;;;;;7.10;6.43;;;;;;;-144.47;100.00;61586.06;4987999;28;20030;-76
2022/09/16 05:39:26;;;;;;;11.93;6.32;;;;;;;-144.47;100.00;61586.06;4983328;28;20040;-75
2022/09/16 05:41:57;;;;;;;6.70;6.15;;;;;;;-144.47;100.00;61586.06;4639509;28;9999985;-75
2022/09/16 05:44:23;;;;;;;7.47;6.25;;;;;;;-144.47;100.00;61586.06;4982854;28;20046;-76
2022/09/16 05:46:48;;;;;;;7.22;5.68;;;;;;;-144.47;100.00;61586.06;4981235;28;20034;-75
2022/09/16 05:49:19;;;;;;;8.07;5.45;;;;;;;-144.47;100.00;61586.06;4980174;28;20039;-77
2022/09/16 05:51:46;;;;;;;10.45;6.60;;;;;;;-144.47;100.00;61586.06;4981310;28;20046;-76
2022/09/16 05:54:12;;;;;;;7.68;5.90;;;;;;;-144.47;100.00;61586.06;4978667;28;20066;-77
2022/09/16 05:56:38;;;;;;;11.77;6.45;;;;;;;-144.47;100.00;61586.06;4996724;28;20501;-79
2022/09/16 05:59:04;;;;;;;6.38;5.78;;;;;;;-144.47;100.00;61586.06;4977111;28;20053;-79
2022/09/16 06:01:34;;;;;;;9.75;6.18;;;;;;;-144.47;100.00;61586.06;4979798;28;20132;-75
2022/09/16 06:04:04;;;;;;;7.68;6.20;;;;;;;-144.47;100.00;61586.06;4981248;28;20050;-78
2022/09/16 06:06:36;;;;;;;10.23;7.60;;;;;;;-144.47;100.00;61586.06;4636732;28;10000244;-76
2022/09/16 06:09:07;;;;;;;9.25;6.72;;;;;;;-144.47;100.00;61586.06;4981762;28;20030;-76
2022/09/16 06:11:37;;;;;;;9.65;6.80;;;;;;;-144.47;100.00;61586.06;4984462;28;20034;-76
2022/09/16 06:14:04;;;;;;;8.05;6.38;;;;;;;-144.47;100.00;61586.06;4981502;28;20105;-75
2022/09/16 06:16:31;;;;;;;7.53;6.60;;;;;;;-144.47;100.00;61586.06;4986965;28;20392;-76
2022/09/16 06:18:59;;;;;;;9.90;6.70;;;;;;;-144.47;100.00;61586.06;4982026;28;20038;-76
2022/09/16 06:21:25;;;;;;;8.60;6.82;;;;;;;-144.47;100.00;61586.06;4983128;28;20031;-77
2022/09/16 06:23:50;;;;;;;12.23;7.70;;;;;;;-144.47;100.00;61586.06;4982690;28;20034;-77
2022/09/16 06:26:20;;;;;;;10.05;7.38;;;;;;;-144.47;100.00;61586.06;4981658;28;20033;-77
2022/09/16 06:28:47;;;;;;;12.27;7.43;;;;;;;-144.47;100.00;61586.06;4994466;28;20034;-77
2022/09/16 06:31:15;;;;;;;9.80;7.60;;;;;;;-144.47;100.00;61586.06;4991829;28;20062;-76
2022/09/16 06:33:41;;;;;;;7.60;6.80;;;;;;;-144.47;100.00;61586.06;4983890;28;20031;-77
2022/09/16 06:36:10;;;;;;;8.95;7.30;;;;;;;-144.47;100.00;61586.06;4980943;28;20050;-76
2022/09/16 06:38:35;;;;;;;9.32;7.30;;;;;;;-144.47;100.00;61586.06;4983548;28;20026;-77
2022/09/16 06:41:03;;;;;;;10.18;7.60;;;;;;;-144.47;100.00;61586.06;4981121;28;20041;-77
2022/09/16 06:43:29;;;;;;;11.02;6.57;;;;;;;-144.47;100.00;61586.06;4983294;28;20031;-77
2022/09/16 06:45:57;;;;;;;8.07;6.75;;;;;;;-144.47;100.00;61586.06;4981707;28;20382;-77
2022/09/16 06:48:22;;;;;;;11.25;7.10;;;;;;;-144.47;100.00;61586.06;4982211;28;20027;-76
2022/09/16 06:50:48;;;;;;;9.27;7.07;;;;;;;-144.47;100.00;61586.06;4982090;28;20050;-77
2022/09/16 06:53:13;;;;;;;8.23;7.35;;;;;;;-144.47;100.00;61586.06;4980658;28;20029;-77
2022/09/16 06:55:38;;;;;;;7.95;7.15;;;;;;;-144.47;100.00;61586.06;4980083;28;20030;-76
2022/09/16 06:58:04;;;;;;;11.23;7.03;;;;;;;-144.47;100.00;61586.06;4984042;28;20034;-77
2022/09/16 07:00:29;;;;;;;10.20;6.40;;;;;;;-144.47;100.00;61586.06;4986882;28;20042;-77
2022/09/16 07:02:55;;;;;;;11.43;6.47;;;;;;;-144.47;100.00;61586.06;4981581;28;20113;-76
2022/09/16 07:05:20;;;;;;;8.85;6.93;;;;;;;-144.47;100.00;61586.06;4981563;28;20035;-77
2022/09/16 07:07:46;;;;;;;7.80;6.85;;;;;;;-144.47;100.00;61586.06;4982851;28;20022;-77
2022/09/16 07:10:11;;;;;;;11.52;5.80;;;;;;;-144.47;100.00;61586.06;4980556;28;20090;-77
2022/09/16 07:12:37;;;;;;;8.95;6.30;;;;;;;-144.47;100.00;61586.06;4983641;28;20034;-77
2022/09/16 07:15:02;;;;;;;9.20;5.93;;;;;;;-144.47;100.00;61586.06;4980613;28;20023;-75
2022/09/16 07:17:28;;;;;;;7.43;5.70;;;;;;;-144.47;100.00;61586.06;4982767;28;20038;-75
2022/09/16 07:19:54;;;;;;;9.07;5.65;;;;;;;-144.47;100.00;61586.06;4981464;28;20026;-77
2022/09/16 07:22:19;;;;;;;9.63;5.53;;;;;;;-144.47;100.00;61586.06;4981923;28;20454;-76
2022/09/16 07:24:45;;;;;;;5.43;4.82;;;;;;;-144.47;100.00;61586.06;4986474;28;20085;-77
2022/09/16 07:27:11;;;;;;;7.57;5.18;;;;;;;-144.47;100.00;61586.06;4984012;28;20084;-77
2022/09/16 07:29:36;;;;;;;9.48;5.15;;;;;;;-144.47;100.00;61586.06;4983580;28;20109;-78
2022/09/16 07:32:04;;;;;;;9.85;5.03;;;;;;;-144.47;100.00;61586.06;4990591;28;20049;-78
2022/09/16 07:34:29;;;;;;;7.90;4.53;;;;;;;-144.47;100.00;61586.06;4986628;28;20634;-79
2022/09/16 07:36:55;;;;;;;8.48;4.85;;;;;;;-144.47;100.00;61586.06;4982190;28;20171;-81
2022/09/16 07:39:21;;;;;;;8.65;4.82;;;;;;;-144.47;100.00;61586.06;4984877;28;20088;-80
2022/09/16 07:41:50;;;;;;;9.00;4.88;;;;;;;-144.47;100.00;61586.06;4980940;28;20468;-80
2022/09/16 07:44:18;;;;;;;7.50;4.13;;;;;;;-144.47;100.00;61586.06;4982874;28;20244;-78
2022/09/16 07:46:43;;;;;;;5.43;4.30;;;;;;;-144.47;100.00;61586.06;4979360;28;20047;-78
2022/09/16 07:49:12;;;;;;;10.35;4.32;;;;;;;-144.47;100.00;61586.06;4983230;28;20062;-77
2022/09/16 07:51:37;;;;;;;11.10;4.57;;;;;;;-144.47;100.00;61586.06;4978905;28;20380;-78
2022/09/16 07:54:07;;;;;;;6.45;4.47;;;;;;;-144.47;100.00;61586.06;4982951;28;20038;-78
2022/09/16 07:56:34;;;;;;;5.88;4.18;;;;;;;-144.47;100.00;61586.06;4979623;28;20492;-78
2022/09/16 07:59:02;;;;;;;10.63;4.75;;;;;;;-144.47;100.00;61586.06;4985165;28;20026;-77
2022/09/16 08:01:29;;;;;;;11.40;5.53;;;;;;;-144.47;100.00;61586.06;4980269;28;20059;-77
2022/09/16 08:03:56;;;;;;;5.97;4.53;;;;;;;-144.47;100.00;61586.06;4980095;28;20566;-78
2022/09/16 08:06:25;;;;;;;8.32;4.95;;;;;;;-144.47;100.00;61586.06;4981079;28;20064;-78
2022/09/16 08:08:52;;;;;;;10.55;4.97;;;;;;;-144.47;100.00;61586.06;4980619;28;20543;-77
2022/09/16 08:11:18;;;;;;;9.63;5.72;;;;;;;-144.47;100.00;61586.06;4981413;28;20042;-76
2022/09/16 08:13:45;;;;;;;14.73;5.75;;;;;;;-144.47;100.00;61586.06;4979326;28;20427;-76
2022/09/16 08:16:14;;;;;;;11.85;5.97;;;;;;;-144.47;100.00;61586.06;4982633;28;20022;-77
2022/09/16 08:18:40;;;;;;;9.75;5.43;;;;;;;-144.47;100.00;61586.06;4979222;28;20031;-76
2022/09/16 08:21:13;;;;;;;6.63;5.40;;;;;;;-144.47;100.00;61586.06;4982783;28;20072;-78
2022/09/16 08:23:39;;;;;;;9.85;5.70;;;;;;;-144.47;100.00;61586.06;4979198;28;20433;-76
2022/09/16 08:26:09;;;;;;;7.15;5.68;;;;;;;-144.47;100.00;61586.06;4982403;28;20027;-76
2022/09/16 08:28:37;;;;;;;8.48;5.28;;;;;;;-144.47;100.00;61586.06;4983160;28;20022;-76
2022/09/16 08:31:03;;;;;;;7.90;5.28;;;;;;;-144.47;100.00;61586.06;4990377;28;20034;-76
2022/09/16 08:33:28;;;;;;;6.63;5.28;;;;;;;-144.47;100.00;61586.06;4987600;28;20498;-77
2022/09/16 08:36:21;;;;;;;12.93;5.93;;;;;;;-144.47;100.00;61586.06;4987884;28;20053;-75
2022/09/16 08:38:50;;;;;;;8.43;5.55;;;;;;;-144.47;100.00;61586.06;4990721;28;20089;-79
2022/09/16 08:41:25;;;;;;;8.95;4.97;;;;;;;-144.47;100.00;61586.06;4993556;28;20058;-73
2022/09/16 08:43:53;;;;;;;15.65;5.53;;;;;;;-144.47;100.00;61586.06;4993233;28;20031;-74
2022/09/16 08:46:32;;;;;;;8.73;4.93;;;;;;;-144.47;100.00;61586.06;4993187;28;20086;-76
2022/09/16 08:49:32;;;;;;;7.70;3.78;;;;;;;-144.47;100.00;61586.06;4994555;28;20038;-76
2022/09/16 08:52:01;;;;;;;8.50;3.75;;;;;;;-144.47;100.00;61586.06;4993031;28;20050;-76
2022/09/16 08:54:49;;;;;;;6.57;4.40;;;;;;;-144.47;100.00;61586.06;4993797;28;20148;-83
2022/09/16 08:57:20;;;;;;;9.57;4.03;;;;;;;-144.47;100.00;61586.06;4988433;28;20113;-82
2022/09/16 08:59:52;;;;;;;6.65;3.92;;;;;;;-144.47;100.00;61586.06;4982366;28;20469;-87
2022/09/16 09:02:23;;;;;;;8.40;4.10;;;;;;;-144.47;100.00;61586.06;4988681;28;20411;-90
2022/09/16 09:04:48;;;;;;;6.15;3.60;;;;;;;-144.47;100.00;61586.06;4994217;28;20488;-89
2022/09/16 09:07:27;;;;;;;8.23;3.43;;;;;;;-144.47;100.00;61586.06;4988528;28;20504;-93
2022/09/16 09:10:23;;;;;;;6.33;3.93;;;;;;;-144.47;100.00;61586.06;4986689;28;20908;-91
2022/09/16 09:12:54;;;;;;;7.63;3.90;;;;;;;-144.47;100.00;61586.06;4987759;28;20424;-87
2022/09/16 09:15:22;;;;;;;7.20;4.00;;;;;;;-144.47;100.00;61586.06;4983648;28;20466;-85
2022/09/16 09:18:25;;;;;;;6.95;3.70;;;;;;;-144.47;100.00;61586.06;4991929;28;20551;-89
2022/09/16 09:21:10;;;;;;;6.05;3.20;;;;;;;-144.47;100.00;61586.06;5008462;28;20755;-89
2022/09/16 09:23:59;;;;;;;7.10;3.50;;;;;;;-144.47;100.00;61586.06;4985298;28;21014;-88
2022/09/16 09:26:47;;;;;;;5.03;2.70;;;;;;;-144.47;100.00;61586.06;4987089;28;20455;-92
2022/09/16 09:29:21;;;;;;;7.68;2.95;;;;;;;-144.47;100.00;61586.06;5001757;28;21037;-85
2022/09/16 09:31:56;;;;;;;5.43;3.28;;;;;;;-144.47;100.00;61586.06;4980579;28;20427;-83
2022/09/16 09:34:42;;;;;;;5.57;2.67;;;;;;;-144.47;100.00;61586.06;5000426;28;20436;-85
2022/09/16 09:37:17;;;;;;;5.10;2.75;;;;;;;-144.47;100.00;61586.06;4990570;28;20405;-84
2022/09/16 09:40:01;;;;;;;6.57;2.70;;;;;;;-144.47;100.00;61586.06;4997864;28;20464;-84
2022/09/16 09:42:46;;;;;;;6.63;2.80;;;;;;;-144.47;100.00;61586.06;4984211;28;20423;-88
2022/09/16 09:45:26;;;;;;;3.58;2.10;;;;;;;-144.47;100.00;61586.06;4986394;28;20401;-85
2022/09/16 09:48:01;;;;;;;4.85;2.13;;;;;;;-144.47;100.00;61586.06;4978374;28;20481;-86
2022/09/16 09:50:39;;;;;;;4.57;2.20;;;;;;;-144.47;100.00;61586.06;4979899;28;20454;-87
2022/09/16 09:53:10;;;;;;;3.83;2.13;;;;;;;-144.47;100.00;61586.06;4978818;28;20462;-82
2022/09/16 09:55:38;;;;;;;4.65;2.08;;;;;;;-144.47;100.00;61586.06;4984173;28;20405;-83
2022/09/16 09:58:28;;;;;;;4.88;2.70;;;;;;;-144.47;100.00;61586.06;4982168;28;20395;-78
2022/09/16 10:00:55;;;;;;;4.87;2.43;;;;;;;-144.47;100.00;61586.06;4989233;28;20415;-77
2022/09/16 10:03:20;;;;;;;4.68;2.28;;;;;;;-144.47;100.00;61586.06;4990892;28;20397;-76
2022/09/16 10:05:47;;;;;;;5.53;2.20;;;;;;;-144.47;100.00;61586.06;4990804;28;20410;-77
2022/09/16 10:08:17;;;;;;;4.30;2.00;;;;;;;-144.47;100.00;61586.06;4986195;28;20407;-79
2022/09/16 10:10:48;;;;;;;4.53;2.30;;;;;;;-144.47;100.00;61586.06;4988191;28;20445;-79
2022/09/16 10:13:13;;;;;;;5.30;2.50;;;;;;;-144.47;100.00;61586.06;4990887;28;20420;-80
2022/09/16 10:15:39;;;;;;;4.10;2.33;;;;;;;-144.47;100.00;61586.06;4980330;28;20403;-85
2022/09/16 10:18:28;;;;;;;4.30;1.70;;;;;;;-144.47;100.00;61586.06;4987680;28;20409;-85
2022/09/16 10:20:59;;;;;;;4.43;2.10;;;;;;;-144.47;100.00;61586.06;4981736;28;20443;-85
2022/09/16 10:23:25;;;;;;;5.00;2.27;;;;;;;-144.47;100.00;61586.06;4982516;28;20448;-84
2022/09/16 10:26:08;;;;;;;3.85;2.30;;;;;;;-144.47;100.00;61586.06;4985462;28;20445;-85
2022/09/16 10:28:34;;;;;;;4.35;1.85;;;;;;;-144.47;100.00;61586.06;4982727;28;20406;-84
2022/09/16 10:31:00;;;;;;;3.43;2.00;;;;;;;-144.47;100.00;61586.06;4980391;28;20429;-85
2022/09/16 10:33:41;;;;;;;3.33;1.83;;;;;;;-144.47;100.00;61586.06;4981379;28;20435;-85
2022/09/16 10:36:18;;;;;;;3.42;1.63;;;;;;;-144.47;100.00;61586.06;4979877;28;20908;-85
2022/09/16 10:38:51;;;;;;;4.00;1.50;;;;;;;-144.47;100.00;61586.06;4982477;28;20405;-84
2022/09/16 10:41:22;;;;;;;4.85;1.67;;;;;;;-144.47;100.00;61586.06;4986263;28;20439;-85
2022/09/16 10:43:55;;;;;;;2.53;1.30;;;;;;;-144.47;100.00;61586.06;4983564;28;20952;-83
2022/09/16 10:46:21;;;;;;;1.98;1.45;;;;;;;-144.47;100.00;61586.06;4982066;28;20845;-84
2022/09/16 10:48:48;;;;;;;4.37;1.40;;;;;;;-144.47;100.00;61586.06;4979954;28;20443;-84
2022/09/16 10:51:33;;;;;;;4.17;2.00;;;;;;;-144.47;100.00;61586.06;4982370;28;20425;-84
2022/09/16 10:54:01;;;;;;;2.63;1.60;;;;;;;-144.47;100.00;61586.06;4985256;28;20458;-84
2022/09/16 10:56:30;;;;;;;3.70;1.50;;;;;;;-144.47;100.00;61586.06;4982861;28;20414;-84
2022/09/16 10:59:09;;;;;;;2.67;1.40;;;;;;;-144.47;100.00;61586.06;4978151;28;20947;-84
2022/09/16 11:01:56;;;;;;;3.15;1.92;;;;;;;-144.47;100.00;61586.06;4981835;28;20413;-84
2022/09/16 11:04:21;;;;;;;2.85;1.65;;;;;;;-144.47;100.00;61586.06;4983211;28;20465;-84
2022/09/16 11:07:24;;;;;;;4.30;1.67;;;;;;;-144.47;100.00;61586.06;4979910;28;20418;-84
2022/09/16 11:10:27;;;;;;;6.95;1.52;;;;;;;-144.47;100.00;61586.06;4982628;28;20796;-85
2022/09/16 11:13:11;;;;;;;2.93;1.50;;;;;;;-144.47;100.00;61586.06;4984968;28;20518;-84
2022/09/16 11:16:04;;;;;;;5.28;1.45;;;;;;;-144.47;100.00;61586.06;4985205;28;20410;-84
2022/09/16 11:18:57;;;;;;;2.83;1.75;;;;;;;-144.47;100.00;61586.06;4999715;28;20794;-83
2022/09/16 11:21:33;;;;;;;2.72;1.58;;;;;;;-144.47;100.00;61586.06;4995969;28;20402;-82
2022/09/16 11:24:07;;;;;;;2.60;1.38;;;;;;;-144.47;100.00;61586.06;4989838;28;20452;-84
2022/09/16 11:26:51;;;;;;;3.33;1.17;;;;;;;-144.47;100.00;61586.06;4987968;28;20407;-85
2022/09/16 11:29:19;;;;;;;3.13;1.40;;;;;;;-144.47;100.00;61586.06;4990960;28;20739;-85
2022/09/16 11:32:03;;;;;;;1.90;1.33;;;;;;;-144.47;100.00;61586.06;4991664;28;20425;-84